sensor_id;sensor_type;location;lat;lon;timestamp;P1;durP1;ratioP1;P2;durP2;ratioP2
12151;SDS011;6139;51.274;7.128;2022-08-03T00:00:45;4.03;;;3.42;;
12151;SDS011;6139;51.274;7.128;2022-08-03T00:01:47;3.95;;;3.35;;
12151;SDS011;6139;51.274;7.128;2022-08-03T00:02:50;5.40;;;3.30;;
12151;SDS011;6139;51.274;7.128;2022-08-03T00:03:52;4.53;;;3.30;;
12151;SDS011;6139;51.274;7.128;2022-08-03T00:04:53;4.22;;;3.25;;
12151;SDS011;6139;51.274;7.128;2022-08-03T00:05:55;7.22;;;3.60;;
12151;SDS011;6139;51.274;7.128;2022-08-03T00:06:56;4.03;;;3.60;;
12151;SDS011;6139;51.274;7.128;2022-08-03T00:07:58;5.63;;;3.53;;
12151;SDS011;6139;51.274;7.128;2022-08-03T00:08:59;4.43;;;3.40;;
12151;SDS011;6139;51.274;7.128;2022-08-03T00:10:02;5.28;;;3.88;;
12151;SDS011;6139;51.274;7.128;2022-08-03T00:11:03;3.50;;;3.20;;
12151;SDS011;6139;51.274;7.128;2022-08-03T00:12:06;5.25;;;3.42;;
12151;SDS011;6139;51.274;7.128;2022-08-03T00:13:08;4.78;;;3.30;;
12151;SDS011;6139;51.274;7.128;2022-08-03T00:14:12;3.70;;;3.30;;
12151;SDS011;6139;51.274;7.128;2022-08-03T00:15:13;4.20;;;3.20;;
12151;SDS011;6139;51.274;7.128;2022-08-03T00:16:15;4.25;;;3.25;;
12151;SDS011;6139;51.274;7.128;2022-08-03T00:17:17;6.28;;;3.85;;
12151;SDS011;6139;51.274;7.128;2022-08-03T00:18:20;4.63;;;3.30;;
12151;SDS011;6139;51.274;7.128;2022-08-03T00:19:22;4.25;;;3.20;;
12151;SDS011;6139;51.274;7.128;2022-08-03T00:20:23;4.60;;;2.90;;
12151;SDS011;6139;51.274;7.128;2022-08-03T00:21:25;5.38;;;3.22;;
12151;SDS011;6139;51.274;7.128;2022-08-03T00:22:26;3.92;;;3.33;;
12151;SDS011;6139;51.274;7.128;2022-08-03T00:23:28;3.00;;;2.80;;
12151;SDS011;6139;51.274;7.128;2022-08-03T00:24:30;3.95;;;3.40;;
12151;SDS011;6139;51.274;7.128;2022-08-03T00:25:32;3.40;;;2.97;;
12151;SDS011;6139;51.274;7.128;2022-08-03T00:26:34;3.72;;;3.00;;
12151;SDS011;6139;51.274;7.128;2022-08-03T00:27:35;5.22;;;3.45;;
12151;SDS011;6139;51.274;7.128;2022-08-03T00:28:37;5.93;;;3.28;;
12151;SDS011;6139;51.274;7.128;2022-08-03T00:29:38;4.07;;;3.55;;
12151;SDS011;6139;51.274;7.128;2022-08-03T00:30:40;3.20;;;2.90;;
12151;SDS011;6139;51.274;7.128;2022-08-03T00:31:41;3.28;;;2.95;;
12151;SDS011;6139;51.274;7.128;2022-08-03T00:32:43;4.57;;;3.30;;
12151;SDS011;6139;51.274;7.128;2022-08-03T00:33:45;4.70;;;3.10;;
12151;SDS011;6139;51.274;7.128;2022-08-03T00:34:48;4.32;;;2.97;;
12151;SDS011;6139;51.274;7.128;2022-08-03T00:35:49;4.10;;;3.03;;
12151;SDS011;6139;51.274;7.128;2022-08-03T00:36:52;5.63;;;3.25;;
12151;SDS011;6139;51.274;7.128;2022-08-03T00:37:53;4.95;;;3.22;;
12151;SDS011;6139;51.274;7.128;2022-08-03T00:38:55;4.63;;;3.33;;
12151;SDS011;6139;51.274;7.128;2022-08-03T00:39:56;3.90;;;3.20;;
12151;SDS011;6139;51.274;7.128;2022-08-03T00:40:58;4.68;;;3.10;;
12151;SDS011;6139;51.274;7.128;2022-08-03T00:42:00;3.58;;;3.25;;
12151;SDS011;6139;51.274;7.128;2022-08-03T00:43:03;3.28;;;2.97;;
12151;SDS011;6139;51.274;7.128;2022-08-03T00:44:06;3.38;;;3.03;;
12151;SDS011;6139;51.274;7.128;2022-08-03T00:45:08;3.45;;;2.83;;
12151;SDS011;6139;51.274;7.128;2022-08-03T00:46:10;3.38;;;3.08;;
12151;SDS011;6139;51.274;7.128;2022-08-03T00:47:12;3.33;;;3.03;;
12151;SDS011;6139;51.274;7.128;2022-08-03T00:48:13;4.97;;;3.13;;
12151;SDS011;6139;51.274;7.128;2022-08-03T00:49:16;3.70;;;3.03;;
12151;SDS011;6139;51.274;7.128;2022-08-03T00:50:17;3.53;;;3.05;;
12151;SDS011;6139;51.274;7.128;2022-08-03T00:51:22;3.45;;;3.10;;
12151;SDS011;6139;51.274;7.128;2022-08-03T00:52:24;4.53;;;3.35;;
12151;SDS011;6139;51.274;7.128;2022-08-03T00:53:26;3.92;;;3.00;;
12151;SDS011;6139;51.274;7.128;2022-08-03T00:54:27;5.65;;;3.25;;
12151;SDS011;6139;51.274;7.128;2022-08-03T00:55:30;4.28;;;3.45;;
12151;SDS011;6139;51.274;7.128;2022-08-03T00:56:31;4.35;;;3.08;;
12151;SDS011;6139;51.274;7.128;2022-08-03T00:57:33;3.38;;;3.08;;
12151;SDS011;6139;51.274;7.128;2022-08-03T00:58:35;3.35;;;3.05;;
12151;SDS011;6139;51.274;7.128;2022-08-03T00:59:37;5.85;;;3.70;;
12151;SDS011;6139;51.274;7.128;2022-08-03T01:00:38;4.20;;;3.13;;
12151;SDS011;6139;51.274;7.128;2022-08-03T01:01:41;4.10;;;3.35;;
12151;SDS011;6139;51.274;7.128;2022-08-03T01:02:42;3.85;;;3.38;;
12151;SDS011;6139;51.274;7.128;2022-08-03T01:03:45;5.90;;;3.30;;
12151;SDS011;6139;51.274;7.128;2022-08-03T01:04:47;4.13;;;3.10;;
12151;SDS011;6139;51.274;7.128;2022-08-03T01:05:51;5.03;;;3.03;;
12151;SDS011;6139;51.274;7.128;2022-08-03T01:06:57;3.83;;;3.30;;
12151;SDS011;6139;51.274;7.128;2022-08-03T01:08:07;4.75;;;3.40;;
12151;SDS011;6139;51.274;7.128;2022-08-03T01:09:16;4.75;;;3.15;;
12151;SDS011;6139;51.274;7.128;2022-08-03T01:10:23;3.63;;;3.25;;
12151;SDS011;6139;51.274;7.128;2022-08-03T01:11:36;3.97;;;3.50;;
12151;SDS011;6139;51.274;7.128;2022-08-03T01:12:47;5.35;;;3.72;;
12151;SDS011;6139;51.274;7.128;2022-08-03T01:13:56;5.47;;;3.50;;
12151;SDS011;6139;51.274;7.128;2022-08-03T01:15:07;4.15;;;3.40;;
12151;SDS011;6139;51.274;7.128;2022-08-03T01:16:21;5.97;;;3.38;;
12151;SDS011;6139;51.274;7.128;2022-08-03T01:17:31;5.22;;;3.40;;
12151;SDS011;6139;51.274;7.128;2022-08-03T01:18:38;3.75;;;3.40;;
12151;SDS011;6139;51.274;7.128;2022-08-03T01:19:48;4.78;;;3.53;;
12151;SDS011;6139;51.274;7.128;2022-08-03T01:20:54;4.85;;;2.95;;
12151;SDS011;6139;51.274;7.128;2022-08-03T01:22:01;4.20;;;3.22;;
12151;SDS011;6139;51.274;7.128;2022-08-03T01:24:42;3.47;;;3.10;;
12151;SDS011;6139;51.274;7.128;2022-08-03T01:25:54;3.28;;;2.97;;
12151;SDS011;6139;51.274;7.128;2022-08-03T01:27:08;5.50;;;3.00;;
12151;SDS011;6139;51.274;7.128;2022-08-03T01:29:51;7.10;;;3.50;;
12151;SDS011;6139;51.274;7.128;2022-08-03T01:31:02;4.13;;;3.13;;
12151;SDS011;6139;51.274;7.128;2022-08-03T01:32:08;4.35;;;3.20;;
12151;SDS011;6139;51.274;7.128;2022-08-03T01:33:14;3.67;;;3.20;;
12151;SDS011;6139;51.274;7.128;2022-08-03T01:34:19;3.95;;;3.30;;
12151;SDS011;6139;51.274;7.128;2022-08-03T01:35:21;5.10;;;3.10;;
12151;SDS011;6139;51.274;7.128;2022-08-03T01:36:28;5.75;;;3.10;;
12151;SDS011;6139;51.274;7.128;2022-08-03T01:37:34;3.40;;;3.10;;
12151;SDS011;6139;51.274;7.128;2022-08-03T01:38:40;4.72;;;3.20;;
12151;SDS011;6139;51.274;7.128;2022-08-03T01:39:45;4.68;;;3.20;;
12151;SDS011;6139;51.274;7.128;2022-08-03T01:40:49;5.47;;;3.65;;
12151;SDS011;6139;51.274;7.128;2022-08-03T01:41:55;3.80;;;3.20;;
12151;SDS011;6139;51.274;7.128;2022-08-03T01:43:00;5.85;;;3.63;;
12151;SDS011;6139;51.274;7.128;2022-08-03T01:44:06;4.03;;;3.65;;
12151;SDS011;6139;51.274;7.128;2022-08-03T01:45:13;3.45;;;2.92;;
12151;SDS011;6139;51.274;7.128;2022-08-03T01:46:18;4.97;;;3.53;;
12151;SDS011;6139;51.274;7.128;2022-08-03T01:47:20;4.07;;;3.10;;
12151;SDS011;6139;51.274;7.128;2022-08-03T01:48:24;5.28;;;3.88;;
12151;SDS011;6139;51.274;7.128;2022-08-03T01:49:27;5.15;;;3.40;;
12151;SDS011;6139;51.274;7.128;2022-08-03T01:50:30;3.90;;;3.25;;
12151;SDS011;6139;51.274;7.128;2022-08-03T01:51:33;4.40;;;2.92;;
12151;SDS011;6139;51.274;7.128;2022-08-03T01:52:37;5.32;;;3.20;;
12151;SDS011;6139;51.274;7.128;2022-08-03T01:53:41;4.40;;;3.42;;
12151;SDS011;6139;51.274;7.128;2022-08-03T01:54:44;5.28;;;3.30;;
12151;SDS011;6139;51.274;7.128;2022-08-03T01:55:48;4.50;;;3.30;;
12151;SDS011;6139;51.274;7.128;2022-08-03T01:56:56;3.63;;;3.28;;
12151;SDS011;6139;51.274;7.128;2022-08-03T01:57:58;4.38;;;3.35;;
12151;SDS011;6139;51.274;7.128;2022-08-03T01:59:03;3.83;;;3.20;;
12151;SDS011;6139;51.274;7.128;2022-08-03T02:00:07;3.83;;;3.00;;
12151;SDS011;6139;51.274;7.128;2022-08-03T02:01:17;5.07;;;3.30;;
12151;SDS011;6139;51.274;7.128;2022-08-03T02:02:20;3.60;;;3.10;;
12151;SDS011;6139;51.274;7.128;2022-08-03T02:03:23;4.60;;;3.10;;
12151;SDS011;6139;51.274;7.128;2022-08-03T02:04:24;3.65;;;2.90;;
12151;SDS011;6139;51.274;7.128;2022-08-03T02:05:28;3.50;;;3.20;;
12151;SDS011;6139;51.274;7.128;2022-08-03T02:06:32;3.50;;;3.08;;
12151;SDS011;6139;51.274;7.128;2022-08-03T02:07:35;4.05;;;3.00;;
12151;SDS011;6139;51.274;7.128;2022-08-03T02:08:40;4.00;;;3.30;;
12151;SDS011;6139;51.274;7.128;2022-08-03T02:09:45;4.07;;;3.15;;
12151;SDS011;6139;51.274;7.128;2022-08-03T02:10:51;4.45;;;3.53;;
12151;SDS011;6139;51.274;7.128;2022-08-03T02:11:54;3.22;;;2.92;;
12151;SDS011;6139;51.274;7.128;2022-08-03T02:12:57;5.82;;;3.38;;
12151;SDS011;6139;51.274;7.128;2022-08-03T02:14:02;3.25;;;2.95;;
12151;SDS011;6139;51.274;7.128;2022-08-03T02:15:05;4.00;;;3.38;;
12151;SDS011;6139;51.274;7.128;2022-08-03T02:16:08;3.60;;;3.10;;
12151;SDS011;6139;51.274;7.128;2022-08-03T02:17:12;3.25;;;2.95;;
12151;SDS011;6139;51.274;7.128;2022-08-03T02:18:16;5.03;;;3.08;;
12151;SDS011;6139;51.274;7.128;2022-08-03T02:19:19;3.60;;;3.25;;
12151;SDS011;6139;51.274;7.128;2022-08-03T02:20:22;4.15;;;3.45;;
12151;SDS011;6139;51.274;7.128;2022-08-03T02:21:25;3.10;;;2.80;;
12151;SDS011;6139;51.274;7.128;2022-08-03T02:22:29;5.50;;;3.03;;
12151;SDS011;6139;51.274;7.128;2022-08-03T02:23:32;5.20;;;3.50;;
12151;SDS011;6139;51.274;7.128;2022-08-03T02:24:34;4.30;;;3.28;;
12151;SDS011;6139;51.274;7.128;2022-08-03T02:25:37;4.00;;;3.60;;
12151;SDS011;6139;51.274;7.128;2022-08-03T02:26:43;3.60;;;3.20;;
12151;SDS011;6139;51.274;7.128;2022-08-03T02:27:47;3.33;;;3.03;;
12151;SDS011;6139;51.274;7.128;2022-08-03T02:28:53;3.88;;;3.22;;
12151;SDS011;6139;51.274;7.128;2022-08-03T02:29:58;3.63;;;3.33;;
12151;SDS011;6139;51.274;7.128;2022-08-03T02:31:03;3.65;;;3.25;;
12151;SDS011;6139;51.274;7.128;2022-08-03T02:32:08;5.10;;;3.13;;
12151;SDS011;6139;51.274;7.128;2022-08-03T02:33:17;5.05;;;3.00;;
12151;SDS011;6139;51.274;7.128;2022-08-03T02:34:21;3.40;;;3.00;;
12151;SDS011;6139;51.274;7.128;2022-08-03T02:35:27;3.47;;;3.17;;
12151;SDS011;6139;51.274;7.128;2022-08-03T02:36:30;4.68;;;3.55;;
12151;SDS011;6139;51.274;7.128;2022-08-03T02:37:38;3.35;;;3.05;;
12151;SDS011;6139;51.274;7.128;2022-08-03T02:38:43;3.20;;;2.90;;
12151;SDS011;6139;51.274;7.128;2022-08-03T02:39:49;3.42;;;3.08;;
12151;SDS011;6139;51.274;7.128;2022-08-03T02:40:52;3.25;;;2.92;;
12151;SDS011;6139;51.274;7.128;2022-08-03T02:41:57;3.50;;;2.88;;
12151;SDS011;6139;51.274;7.128;2022-08-03T02:43:02;3.53;;;3.13;;
12151;SDS011;6139;51.274;7.128;2022-08-03T02:44:08;3.25;;;2.90;;
12151;SDS011;6139;51.274;7.128;2022-08-03T02:45:10;3.35;;;3.05;;
12151;SDS011;6139;51.274;7.128;2022-08-03T02:46:13;4.53;;;3.03;;
12151;SDS011;6139;51.274;7.128;2022-08-03T02:47:19;4.35;;;2.78;;
12151;SDS011;6139;51.274;7.128;2022-08-03T02:48:24;6.40;;;3.38;;
12151;SDS011;6139;51.274;7.128;2022-08-03T02:49:28;4.47;;;3.30;;
12151;SDS011;6139;51.274;7.128;2022-08-03T02:50:32;4.22;;;2.88;;
12151;SDS011;6139;51.274;7.128;2022-08-03T02:51:34;5.40;;;4.00;;
12151;SDS011;6139;51.274;7.128;2022-08-03T02:52:37;6.10;;;3.30;;
12151;SDS011;6139;51.274;7.128;2022-08-03T02:53:41;4.63;;;3.28;;
12151;SDS011;6139;51.274;7.128;2022-08-03T02:54:45;5.55;;;3.92;;
12151;SDS011;6139;51.274;7.128;2022-08-03T02:55:49;4.18;;;3.08;;
12151;SDS011;6139;51.274;7.128;2022-08-03T02:56:53;3.42;;;3.00;;
12151;SDS011;6139;51.274;7.128;2022-08-03T02:57:56;3.50;;;3.05;;
12151;SDS011;6139;51.274;7.128;2022-08-03T02:58:59;3.50;;;3.20;;
12151;SDS011;6139;51.274;7.128;2022-08-03T03:00:00;3.28;;;2.75;;
12151;SDS011;6139;51.274;7.128;2022-08-03T03:01:03;5.15;;;3.05;;
12151;SDS011;6139;51.274;7.128;2022-08-03T03:02:04;4.10;;;2.97;;
12151;SDS011;6139;51.274;7.128;2022-08-03T03:03:07;5.65;;;3.25;;
12151;SDS011;6139;51.274;7.128;2022-08-03T03:04:12;4.72;;;3.05;;
12151;SDS011;6139;51.274;7.128;2022-08-03T03:05:15;4.30;;;2.83;;
12151;SDS011;6139;51.274;7.128;2022-08-03T03:06:16;3.30;;;3.00;;
12151;SDS011;6139;51.274;7.128;2022-08-03T03:07:20;4.05;;;3.05;;
12151;SDS011;6139;51.274;7.128;2022-08-03T03:08:21;4.30;;;3.88;;
12151;SDS011;6139;51.274;7.128;2022-08-03T03:09:24;4.65;;;3.25;;
12151;SDS011;6139;51.274;7.128;2022-08-03T03:10:26;4.28;;;3.22;;
12151;SDS011;6139;51.274;7.128;2022-08-03T03:11:28;3.58;;;3.08;;
12151;SDS011;6139;51.274;7.128;2022-08-03T03:12:30;4.97;;;2.88;;
12151;SDS011;6139;51.274;7.128;2022-08-03T03:13:33;4.75;;;3.40;;
12151;SDS011;6139;51.274;7.128;2022-08-03T03:14:35;5.97;;;3.17;;
12151;SDS011;6139;51.274;7.128;2022-08-03T03:15:38;4.55;;;2.90;;
12151;SDS011;6139;51.274;7.128;2022-08-03T03:16:41;5.00;;;3.65;;
12151;SDS011;6139;51.274;7.128;2022-08-03T03:17:44;2.80;;;2.60;;
12151;SDS011;6139;51.274;7.128;2022-08-03T03:18:46;4.53;;;2.80;;
12151;SDS011;6139;51.274;7.128;2022-08-03T03:19:51;3.55;;;2.92;;
12151;SDS011;6139;51.274;7.128;2022-08-03T03:20:54;4.28;;;3.20;;
12151;SDS011;6139;51.274;7.128;2022-08-03T03:21:58;5.03;;;3.33;;
12151;SDS011;6139;51.274;7.128;2022-08-03T03:23:00;5.70;;;3.05;;
12151;SDS011;6139;51.274;7.128;2022-08-03T03:24:04;4.32;;;3.33;;
12151;SDS011;6139;51.274;7.128;2022-08-03T03:25:06;3.75;;;2.95;;
12151;SDS011;6139;51.274;7.128;2022-08-03T03:26:09;5.15;;;3.28;;
12151;SDS011;6139;51.274;7.128;2022-08-03T03:27:13;4.07;;;3.03;;
12151;SDS011;6139;51.274;7.128;2022-08-03T03:28:16;6.00;;;3.20;;
12151;SDS011;6139;51.274;7.128;2022-08-03T03:29:17;3.63;;;3.20;;
12151;SDS011;6139;51.274;7.128;2022-08-03T03:30:19;4.75;;;3.17;;
12151;SDS011;6139;51.274;7.128;2022-08-03T03:31:21;4.40;;;2.88;;
12151;SDS011;6139;51.274;7.128;2022-08-03T03:32:24;5.30;;;3.35;;
12151;SDS011;6139;51.274;7.128;2022-08-03T03:33:26;3.90;;;3.50;;
12151;SDS011;6139;51.274;7.128;2022-08-03T03:34:28;4.00;;;3.17;;
12151;SDS011;6139;51.274;7.128;2022-08-03T03:35:31;4.03;;;3.30;;
12151;SDS011;6139;51.274;7.128;2022-08-03T03:36:33;3.67;;;3.00;;
12151;SDS011;6139;51.274;7.128;2022-08-03T03:37:36;5.50;;;3.33;;
12151;SDS011;6139;51.274;7.128;2022-08-03T03:38:37;4.63;;;3.10;;
12151;SDS011;6139;51.274;7.128;2022-08-03T03:39:39;3.97;;;3.35;;
12151;SDS011;6139;51.274;7.128;2022-08-03T03:40:40;4.10;;;3.25;;
12151;SDS011;6139;51.274;7.128;2022-08-03T03:41:43;3.80;;;3.30;;
12151;SDS011;6139;51.274;7.128;2022-08-03T03:42:44;6.85;;;3.45;;
12151;SDS011;6139;51.274;7.128;2022-08-03T03:43:47;3.75;;;3.40;;
12151;SDS011;6139;51.274;7.128;2022-08-03T03:44:49;4.03;;;3.10;;
12151;SDS011;6139;51.274;7.128;2022-08-03T03:45:51;3.60;;;3.30;;
12151;SDS011;6139;51.274;7.128;2022-08-03T03:46:54;4.07;;;3.22;;
12151;SDS011;6139;51.274;7.128;2022-08-03T03:47:58;3.22;;;2.92;;
12151;SDS011;6139;51.274;7.128;2022-08-03T03:48:59;3.50;;;3.10;;
12151;SDS011;6139;51.274;7.128;2022-08-03T03:50:02;4.75;;;2.67;;
12151;SDS011;6139;51.274;7.128;2022-08-03T03:51:05;4.25;;;2.97;;
12151;SDS011;6139;51.274;7.128;2022-08-03T03:52:07;3.30;;;3.00;;
12151;SDS011;6139;51.274;7.128;2022-08-03T03:53:09;4.95;;;3.58;;
12151;SDS011;6139;51.274;7.128;2022-08-03T03:54:12;4.82;;;3.60;;
12151;SDS011;6139;51.274;7.128;2022-08-03T03:55:15;3.63;;;3.33;;
12151;SDS011;6139;51.274;7.128;2022-08-03T03:56:16;3.95;;;3.30;;
12151;SDS011;6139;51.274;7.128;2022-08-03T03:57:18;6.32;;;3.28;;
12151;SDS011;6139;51.274;7.128;2022-08-03T03:58:20;2.92;;;2.60;;
12151;SDS011;6139;51.274;7.128;2022-08-03T03:59:22;3.25;;;2.80;;
12151;SDS011;6139;51.274;7.128;2022-08-03T04:00:23;3.78;;;3.00;;
12151;SDS011;6139;51.274;7.128;2022-08-03T04:01:25;4.47;;;2.88;;
12151;SDS011;6139;51.274;7.128;2022-08-03T04:02:26;3.20;;;2.90;;
12151;SDS011;6139;51.274;7.128;2022-08-03T04:03:28;3.67;;;2.78;;
12151;SDS011;6139;51.274;7.128;2022-08-03T04:04:30;3.25;;;2.95;;
12151;SDS011;6139;51.274;7.128;2022-08-03T04:05:50;3.92;;;3.00;;
12151;SDS011;6139;51.274;7.128;2022-08-03T04:07:11;3.83;;;3.05;;
12151;SDS011;6139;51.274;7.128;2022-08-03T04:08:31;2.97;;;2.65;;
12151;SDS011;6139;51.274;7.128;2022-08-03T04:09:51;4.35;;;3.22;;
12151;SDS011;6139;51.274;7.128;2022-08-03T04:11:13;4.22;;;3.10;;
12151;SDS011;6139;51.274;7.128;2022-08-03T04:12:18;5.28;;;3.28;;
12151;SDS011;6139;51.274;7.128;2022-08-03T04:13:22;4.47;;;3.45;;
12151;SDS011;6139;51.274;7.128;2022-08-03T04:14:27;5.38;;;2.72;;
12151;SDS011;6139;51.274;7.128;2022-08-03T04:15:36;3.70;;;3.25;;
12151;SDS011;6139;51.274;7.128;2022-08-03T04:16:40;3.30;;;3.00;;
12151;SDS011;6139;51.274;7.128;2022-08-03T04:17:45;4.25;;;3.20;;
12151;SDS011;6139;51.274;7.128;2022-08-03T04:18:48;3.63;;;3.33;;
12151;SDS011;6139;51.274;7.128;2022-08-03T04:19:53;3.47;;;3.17;;
12151;SDS011;6139;51.274;7.128;2022-08-03T04:20:57;4.45;;;3.20;;
12151;SDS011;6139;51.274;7.128;2022-08-03T04:22:03;3.20;;;2.90;;
12151;SDS011;6139;51.274;7.128;2022-08-03T04:23:07;3.50;;;3.20;;
12151;SDS011;6139;51.274;7.128;2022-08-03T04:24:09;3.08;;;2.78;;
12151;SDS011;6139;51.274;7.128;2022-08-03T04:25:13;5.30;;;3.28;;
12151;SDS011;6139;51.274;7.128;2022-08-03T04:26:19;4.85;;;2.92;;
12151;SDS011;6139;51.274;7.128;2022-08-03T04:27:24;4.25;;;3.00;;
12151;SDS011;6139;51.274;7.128;2022-08-03T04:28:29;3.80;;;3.45;;
12151;SDS011;6139;51.274;7.128;2022-08-03T04:29:33;3.40;;;3.10;;
12151;SDS011;6139;51.274;7.128;2022-08-03T04:30:37;3.17;;;2.80;;
12151;SDS011;6139;51.274;7.128;2022-08-03T04:31:46;3.28;;;2.97;;
12151;SDS011;6139;51.274;7.128;2022-08-03T04:32:48;4.50;;;3.13;;
12151;SDS011;6139;51.274;7.128;2022-08-03T04:33:52;3.33;;;2.88;;
12151;SDS011;6139;51.274;7.128;2022-08-03T04:34:53;5.32;;;3.28;;
12151;SDS011;6139;51.274;7.128;2022-08-03T04:35:56;6.28;;;3.20;;
12151;SDS011;6139;51.274;7.128;2022-08-03T04:36:59;3.30;;;3.00;;
12151;SDS011;6139;51.274;7.128;2022-08-03T04:38:05;3.70;;;3.17;;
12151;SDS011;6139;51.274;7.128;2022-08-03T04:39:10;3.15;;;2.88;;
12151;SDS011;6139;51.274;7.128;2022-08-03T04:40:17;4.72;;;2.75;;
12151;SDS011;6139;51.274;7.128;2022-08-03T04:41:21;4.03;;;2.95;;
12151;SDS011;6139;51.274;7.128;2022-08-03T04:42:26;3.40;;;3.10;;
12151;SDS011;6139;51.274;7.128;2022-08-03T04:43:28;3.30;;;3.00;;
12151;SDS011;6139;51.274;7.128;2022-08-03T04:44:35;3.03;;;2.72;;
12151;SDS011;6139;51.274;7.128;2022-08-03T04:45:38;4.13;;;3.08;;
12151;SDS011;6139;51.274;7.128;2022-08-03T04:46:41;5.00;;;3.22;;
12151;SDS011;6139;51.274;7.128;2022-08-03T04:47:44;4.85;;;3.05;;
12151;SDS011;6139;51.274;7.128;2022-08-03T04:48:46;5.63;;;2.90;;
12151;SDS011;6139;51.274;7.128;2022-08-03T04:49:47;5.88;;;2.80;;
12151;SDS011;6139;51.274;7.128;2022-08-03T04:50:50;2.97;;;2.67;;
12151;SDS011;6139;51.274;7.128;2022-08-03T04:51:52;3.25;;;2.95;;
12151;SDS011;6139;51.274;7.128;2022-08-03T04:52:54;4.90;;;3.22;;
12151;SDS011;6139;51.274;7.128;2022-08-03T04:53:57;3.47;;;3.17;;
12151;SDS011;6139;51.274;7.128;2022-08-03T04:54:59;3.30;;;3.00;;
12151;SDS011;6139;51.274;7.128;2022-08-03T04:56:04;6.13;;;3.28;;
12151;SDS011;6139;51.274;7.128;2022-08-03T04:57:07;3.92;;;3.25;;
12151;SDS011;6139;51.274;7.128;2022-08-03T04:58:09;5.93;;;3.63;;
12151;SDS011;6139;51.274;7.128;2022-08-03T04:59:12;3.55;;;3.17;;
12151;SDS011;6139;51.274;7.128;2022-08-03T05:00:13;3.88;;;3.15;;
12151;SDS011;6139;51.274;7.128;2022-08-03T05:01:17;3.45;;;3.10;;
12151;SDS011;6139;51.274;7.128;2022-08-03T05:02:19;4.50;;;3.15;;
12151;SDS011;6139;51.274;7.128;2022-08-03T05:03:21;3.70;;;3.22;;
12151;SDS011;6139;51.274;7.128;2022-08-03T05:04:22;4.45;;;3.30;;
12151;SDS011;6139;51.274;7.128;2022-08-03T05:05:25;3.83;;;3.50;;
12151;SDS011;6139;51.274;7.128;2022-08-03T05:06:26;3.42;;;3.05;;
12151;SDS011;6139;51.274;7.128;2022-08-03T05:07:28;3.90;;;3.40;;
12151;SDS011;6139;51.274;7.128;2022-08-03T05:08:29;3.95;;;3.00;;
12151;SDS011;6139;51.274;7.128;2022-08-03T05:09:32;5.25;;;3.75;;
12151;SDS011;6139;51.274;7.128;2022-08-03T05:10:35;4.15;;;3.58;;
12151;SDS011;6139;51.274;7.128;2022-08-03T05:11:38;5.80;;;4.05;;
12151;SDS011;6139;51.274;7.128;2022-08-03T05:12:39;5.55;;;4.13;;
12151;SDS011;6139;51.274;7.128;2022-08-03T05:13:41;4.43;;;3.95;;
12151;SDS011;6139;51.274;7.128;2022-08-03T05:14:42;4.22;;;3.83;;
12151;SDS011;6139;51.274;7.128;2022-08-03T05:15:44;4.30;;;3.90;;
12151;SDS011;6139;51.274;7.128;2022-08-03T05:16:45;4.90;;;4.45;;
12151;SDS011;6139;51.274;7.128;2022-08-03T05:17:47;7.75;;;4.63;;
12151;SDS011;6139;51.274;7.128;2022-08-03T05:18:48;6.47;;;4.50;;
12151;SDS011;6139;51.274;7.128;2022-08-03T05:19:50;5.13;;;4.32;;
12151;SDS011;6139;51.274;7.128;2022-08-03T05:20:52;5.00;;;4.43;;
12151;SDS011;6139;51.274;7.128;2022-08-03T05:21:54;5.50;;;4.60;;
12151;SDS011;6139;51.274;7.128;2022-08-03T05:22:55;4.60;;;4.20;;
12151;SDS011;6139;51.274;7.128;2022-08-03T05:23:58;6.93;;;5.40;;
12151;SDS011;6139;51.274;7.128;2022-08-03T05:25:01;5.20;;;4.70;;
12151;SDS011;6139;51.274;7.128;2022-08-03T05:26:03;6.70;;;5.13;;
12151;SDS011;6139;51.274;7.128;2022-08-03T05:27:05;7.07;;;5.20;;
12151;SDS011;6139;51.274;7.128;2022-08-03T05:28:06;7.70;;;5.45;;
12151;SDS011;6139;51.274;7.128;2022-08-03T05:29:08;7.07;;;5.15;;
12151;SDS011;6139;51.274;7.128;2022-08-03T05:30:09;6.57;;;5.20;;
12151;SDS011;6139;51.274;7.128;2022-08-03T05:31:12;6.30;;;5.30;;
12151;SDS011;6139;51.274;7.128;2022-08-03T05:32:14;7.13;;;6.43;;
12151;SDS011;6139;51.274;7.128;2022-08-03T05:33:16;7.55;;;6.10;;
12151;SDS011;6139;51.274;7.128;2022-08-03T05:34:17;10.02;;;6.20;;
12151;SDS011;6139;51.274;7.128;2022-08-03T05:35:19;6.40;;;5.80;;
12151;SDS011;6139;51.274;7.128;2022-08-03T05:36:20;7.03;;;6.07;;
12151;SDS011;6139;51.274;7.128;2022-08-03T05:37:23;6.22;;;5.72;;
12151;SDS011;6139;51.274;7.128;2022-08-03T05:38:24;6.00;;;5.40;;
12151;SDS011;6139;51.274;7.128;2022-08-03T05:39:26;6.07;;;5.47;;
12151;SDS011;6139;51.274;7.128;2022-08-03T05:40:29;5.60;;;5.10;;
12151;SDS011;6139;51.274;7.128;2022-08-03T05:41:30;5.65;;;5.00;;
12151;SDS011;6139;51.274;7.128;2022-08-03T05:42:33;5.53;;;4.80;;
12151;SDS011;6139;51.274;7.128;2022-08-03T05:43:36;5.63;;;5.03;;
12151;SDS011;6139;51.274;7.128;2022-08-03T05:44:38;5.57;;;5.07;;
12151;SDS011;6139;51.274;7.128;2022-08-03T05:45:39;6.60;;;6.00;;
12151;SDS011;6139;51.274;7.128;2022-08-03T05:46:41;9.35;;;5.60;;
12151;SDS011;6139;51.274;7.128;2022-08-03T05:47:42;5.93;;;5.25;;
12151;SDS011;6139;51.274;7.128;2022-08-03T05:48:44;8.70;;;5.57;;
12151;SDS011;6139;51.274;7.128;2022-08-03T05:49:46;7.38;;;5.57;;
12151;SDS011;6139;51.274;7.128;2022-08-03T05:50:47;6.70;;;5.50;;
12151;SDS011;6139;51.274;7.128;2022-08-03T05:51:49;6.55;;;5.95;;
12151;SDS011;6139;51.274;7.128;2022-08-03T05:52:53;6.47;;;5.78;;
12151;SDS011;6139;51.274;7.128;2022-08-03T05:53:56;6.30;;;5.53;;
12151;SDS011;6139;51.274;7.128;2022-08-03T05:54:58;6.45;;;5.80;;
12151;SDS011;6139;51.274;7.128;2022-08-03T05:56:01;5.97;;;5.47;;
12151;SDS011;6139;51.274;7.128;2022-08-03T05:57:04;6.65;;;5.75;;
12151;SDS011;6139;51.274;7.128;2022-08-03T05:58:04;7.43;;;5.88;;
12151;SDS011;6139;51.274;7.128;2022-08-03T05:59:06;7.53;;;5.47;;
12151;SDS011;6139;51.274;7.128;2022-08-03T06:00:08;5.78;;;5.28;;
12151;SDS011;6139;51.274;7.128;2022-08-03T06:01:12;6.72;;;6.03;;
12151;SDS011;6139;51.274;7.128;2022-08-03T06:02:13;6.45;;;5.70;;
12151;SDS011;6139;51.274;7.128;2022-08-03T06:03:15;7.05;;;5.60;;
12151;SDS011;6139;51.274;7.128;2022-08-03T06:04:16;5.93;;;5.35;;
12151;SDS011;6139;51.274;7.128;2022-08-03T06:05:19;5.57;;;5.07;;
12151;SDS011;6139;51.274;7.128;2022-08-03T06:06:20;6.15;;;5.40;;
12151;SDS011;6139;51.274;7.128;2022-08-03T06:07:22;6.63;;;5.10;;
12151;SDS011;6139;51.274;7.128;2022-08-03T06:08:23;6.78;;;5.15;;
12151;SDS011;6139;51.274;7.128;2022-08-03T06:09:25;8.15;;;5.43;;
12151;SDS011;6139;51.274;7.128;2022-08-03T06:10:26;6.50;;;5.00;;
12151;SDS011;6139;51.274;7.128;2022-08-03T06:11:30;5.32;;;4.82;;
12151;SDS011;6139;51.274;7.128;2022-08-03T06:12:31;5.43;;;4.75;;
12151;SDS011;6139;51.274;7.128;2022-08-03T06:13:35;5.78;;;5.18;;
12151;SDS011;6139;51.274;7.128;2022-08-03T06:14:36;5.20;;;4.72;;
12151;SDS011;6139;51.274;7.128;2022-08-03T06:15:39;7.00;;;4.57;;
12151;SDS011;6139;51.274;7.128;2022-08-03T06:16:40;7.20;;;4.93;;
12151;SDS011;6139;51.274;7.128;2022-08-03T06:17:43;5.30;;;4.75;;
12151;SDS011;6139;51.274;7.128;2022-08-03T06:18:45;6.72;;;4.68;;
12151;SDS011;6139;51.274;7.128;2022-08-03T06:19:47;5.20;;;4.70;;
12151;SDS011;6139;51.274;7.128;2022-08-03T06:20:51;4.50;;;4.03;;
12151;SDS011;6139;51.274;7.128;2022-08-03T06:21:53;5.57;;;4.57;;
12151;SDS011;6139;51.274;7.128;2022-08-03T06:22:55;5.95;;;4.45;;
12151;SDS011;6139;51.274;7.128;2022-08-03T06:23:56;5.90;;;4.35;;
12151;SDS011;6139;51.274;7.128;2022-08-03T06:24:58;7.38;;;5.20;;
12151;SDS011;6139;51.274;7.128;2022-08-03T06:25:59;7.40;;;4.35;;
12151;SDS011;6139;51.274;7.128;2022-08-03T06:27:04;4.60;;;4.20;;
12151;SDS011;6139;51.274;7.128;2022-08-03T06:28:06;5.95;;;4.28;;
12151;SDS011;6139;51.274;7.128;2022-08-03T06:29:07;4.72;;;4.32;;
12151;SDS011;6139;51.274;7.128;2022-08-03T06:30:10;5.43;;;4.43;;
12151;SDS011;6139;51.274;7.128;2022-08-03T06:31:11;8.05;;;4.53;;